Flight Track Log - Related Links

Times and Time Zones

All times are in EDT time to prevent confusion due to time zone crossing. See the N896P flight status page for this flight to view local times or setup timezone preferences in your user account.

Time Position Orientation Groundspeed Altitude Reporting Facility
EDT Latitude Longitude Course Direction KTS MPH feet Rate Location/Type
Tue 11:44:00 PM 35.3125 -99.0754 331° Northwest  Level Estimated
Tue 11:45:00 PM 35.3980 -99.1363 330° Northwest  Level Estimated
Tue 11:46:00 PM 35.4835 -99.1973 330° Northwest  Level Estimated
Tue 11:47:00 PM 35.5689 -99.2585 330° Northwest  Level Estimated
Tue 11:48:00 PM 35.6544 -99.3198 330° Northwest  Level Estimated
Tue 11:49:00 PM 35.7403 -99.3816 330° Northwest  Level Estimated
Tue 11:50:00 PM 35.8262 -99.4436 330° Northwest  Level Estimated
Tue 11:51:00 PM 35.9121 -99.5057 330° Northwest  Level Estimated
Tue 11:52:00 PM 35.9979 -99.5679 330° Northwest  Level Estimated
Tue 11:53:00 PM 36.0837 -99.6302 330° Northwest  Level Estimated
Tue 11:54:00 PM 36.1695 -99.6927 330° Northwest  Level Estimated
Tue 11:55:00 PM 36.2552 -99.7553 330° Northwest  Level Estimated
Tue 11:56:00 PM 36.3409 -99.8181 329° Northwest  Level Estimated
Tue 11:57:00 PM 36.4266 -99.8810 329° Northwest  Level Estimated
Tue 11:58:00 PM 36.5122 -99.9441 329° Northwest  Level Estimated
Tue 11:59:00 PM 36.5978 -100.0072 329° Northwest  Level Estimated
Wed 12:00:00 AM 36.6834 -100.0706 329° Northwest  Level Estimated
Wed 12:01:00 AM 36.7690 -100.1340 329° Northwest  Level Estimated
Wed 12:02:00 AM 36.8545 -100.1976 329° Northwest  Level Estimated
Wed 12:03:00 AM 36.9409 -100.2622 329° Northwest  Level Estimated
Wed 12:04:00 AM 37.0274 -100.3268 329° Northwest  Level Estimated
Wed 12:05:00 AM 37.1138 -100.3916 329° Northwest  Level Estimated
Wed 12:06:00 AM 37.2002 -100.4566 329° Northwest  Level Estimated
Wed 12:07:00 AM 37.2866 -100.5217 329° Northwest  Level Estimated
Wed 12:08:00 AM 37.3729 -100.5869 329° Northwest  Level Estimated
Wed 12:09:00 AM 37.4592 -100.6523 329° Northwest  Level Estimated
Wed 12:10:00 AM 37.5454 -100.7179 329° Northwest  Level Estimated
Wed 12:11:00 AM 37.6312 -100.7833 329° Northwest  Level Estimated
Wed 12:12:00 AM 37.7169 -100.8488 329° Northwest  Level Estimated
Wed 12:13:00 AM 37.8027 -100.9145 329° Northwest  Level Estimated
Wed 12:14:00 AM 37.8884 -100.9803 329° Northwest  Level Estimated
Wed 12:15:00 AM 37.9740 -101.0463 329° Northwest  Level Estimated
Wed 12:16:00 AM 38.0596 -101.1125 329° Northwest  Level Estimated
Wed 12:17:00 AM 38.1452 -101.1788 329° Northwest  Level Estimated
Wed 12:18:00 AM 38.2307 -101.2452 329° Northwest  Level Estimated
Wed 12:19:00 AM 38.3162 -101.3119 329° Northwest  Level Estimated
Wed 12:20:00 AM 38.4017 -101.3786 329° Northwest  Level Estimated
Wed 12:21:00 AM 38.4871 -101.4456 328° Northwest  Level Estimated
Wed 12:22:00 AM 38.5725 -101.5127 328° Northwest  Level Estimated
Wed 12:23:00 AM 38.6578 -101.5799 328° Northwest  Level Estimated
Wed 12:24:00 AM 38.7431 -101.6473 328° Northwest  Level Estimated
Wed 12:25:00 AM 38.8284 -101.7149 328° Northwest  Level Estimated
Wed 12:26:00 AM 38.9129 -101.7821 328° Northwest  Level Estimated
Wed 12:27:00 AM 38.9974 -101.8494 328° Northwest  Level Estimated
Wed 12:28:00 AM 39.0818 -101.9169 328° Northwest  Level Estimated
Wed 12:29:00 AM 39.1662 -101.9845 328° Northwest  Level Estimated
Wed 12:30:00 AM 39.2506 -102.0523 328° Northwest  Level Estimated
Wed 12:31:00 AM 39.3349 -102.1203 328° Northwest  Level Estimated
Wed 12:32:00 AM 39.4192 -102.1885 328° Northwest  Level Estimated
Wed 12:33:00 AM 39.5042 -102.2574 328° Northwest  Level Estimated
Wed 12:34:00 AM 39.5891 -102.3265 328° Northwest  Level Estimated
Wed 12:35:00 AM 39.6735 -102.3953 328° Northwest  Level Estimated
Wed 12:36:00 AM 39.7577 -102.4642 328° Northwest  Level Estimated
Wed 12:37:00 AM 39.8419 -102.5333 328° Northwest  Level Estimated
Wed 12:38:00 AM 39.9261 -102.6026 328° Northwest  Level Estimated
Wed 12:39:00 AM 40.0103 -102.6720 328° Northwest  Level Estimated
Wed 12:40:00 AM 40.0944 -102.7416 328° Northwest  Level Estimated
Wed 12:41:00 AM 40.1785 -102.8114 328° Northwest  Level Estimated
Wed 12:42:00 AM 40.2625 -102.8814 328° Northwest  Level Estimated
Wed 12:43:00 AM 40.3465 -102.9515 328° Northwest  Level Estimated
Wed 12:44:00 AM 40.4308 -103.0221 327° Northwest  Level Estimated
Wed 12:45:00 AM 40.5151 -103.0929 327° Northwest  Level Estimated
Wed 12:46:00 AM 40.5994 -103.1640 327° Northwest  Level Estimated
Wed 12:47:00 AM 40.6836 -103.2352 327° Northwest  Level Estimated
Wed 12:48:00 AM 40.7678 -103.3065 327° Northwest  Level Estimated
Wed 12:49:00 AM 40.8519 -103.3781 327° Northwest  Level Estimated
Wed 12:50:00 AM 40.9360 -103.4498 327° Northwest  Level Estimated
Wed 12:51:00 AM 41.0193 -103.5211 327° Northwest  Level Estimated
Wed 12:52:00 AM 41.1026 -103.5926 327° Northwest  Level Estimated
Wed 12:53:00 AM 41.1858 -103.6642 327° Northwest  Level Estimated
Wed 12:54:00 AM 41.2690 -103.7361 327° Northwest  Level Estimated
Wed 12:55:00 AM 41.3528 -103.8086 327° Northwest  Level Estimated
Wed 12:56:00 AM 41.4365 -103.8814 327° Northwest  Level Estimated
Wed 12:57:00 AM 41.5202 -103.9544 327° Northwest  Level Estimated
Wed 12:58:00 AM 41.6039 -104.0275 327° Northwest  Level Estimated
Wed 12:59:00 AM 41.6875 -104.1009 327° Northwest  Level Estimated
Wed 01:00:00 AM 41.7711 -104.1744 327° Northwest  Level Estimated
Wed 01:01:00 AM 41.8546 -104.2482 327° Northwest  Level Estimated
Wed 01:02:00 AM 41.9381 -104.3221 327° Northwest  Level Estimated
Wed 01:03:00 AM 42.0215 -104.3962 327° Northwest  Level Estimated
Wed 01:03:42 AM 41.7294 -104.6475 326° Northwest 394 453 45,000  Level Denver Center
Wed 01:04:00 AM 42.1049 -104.4705 327° Northwest  Level Estimated
Wed 01:04:43 AM 41.8231 -104.7167 331° Northwest 399 459 45,000  Level Denver Center
Wed 01:05:00 AM 42.1879 -104.5447 326° Northwest  Level Estimated
Wed 01:05:43 AM 41.9161 -104.7869 331° Northwest 400 460 45,000  Level Denver Center
Wed 01:06:00 AM 42.2708 -104.6191 326° Northwest  Level Estimated
Wed 01:06:44 AM 42.0258 -104.8706 330° Northwest 405 466 45,000  Level Denver Center
Wed 01:07:00 AM 42.3537 -104.6937 326° Northwest  Level Estimated
Wed 01:07:44 AM 42.1194 -104.9433 330° Northwest 404 465 45,000  Level Denver Center
Wed 01:08:00 AM 42.4366 -104.7685 326° Northwest  Level Estimated
Wed 01:08:45 AM 42.2131 -105.0161 330° Northwest 404 465 45,000  Level Denver Center
Wed 01:09:46 AM 42.3225 -105.1011 330° Northwest 403 464 45,000  Level Denver Center
Wed 01:10:46 AM 42.4164 -105.1728 331° Northwest 403 464 45,000  Level Denver Center
Wed 01:11:47 AM 42.5108 -105.2464 330° Northwest 406 467 45,000  Level Denver Center
Wed 01:12:47 AM 42.6047 -105.3192 330° Northwest 405 466 45,000  Level Denver Center
Wed 01:13:48 AM 42.7144 -105.4067 330° Northwest 406 467 45,000 -446 Level Denver Center
Wed 01:14:48 AM 42.8094 -105.4772 331° Northwest 406 467 44,100 -1,537 Descending Denver Center
Wed 01:15:49 AM 42.8992 -105.5492 330° Northwest 394 453 41,900 -2,380 Descending Denver Center
Wed 01:16:49 AM 43.0042 -105.6308 330° Northwest 391 450 39,300 -2,380 Descending Denver Center
Wed 01:17:50 AM 43.0925 -105.7019 330° Northwest 386 444 37,100 -2,182 Descending Denver Center
Wed 01:18:50 AM 43.1786 -105.7728 329° Northwest 381 438 34,900 -2,182 Descending Denver Center
Wed 01:19:51 AM 43.2683 -105.8444 330° Northwest 388 447 32,700 -2,380 Descending Denver Center
Wed 01:20:51 AM 43.3728 -105.9269 330° Northwest 389 448 30,100 -2,380 Descending Denver Center
Wed 01:21:52 AM 43.4633 -105.9997 330° Northwest 393 452 27,900 -1,985 Descending Denver Center
Wed 01:23:04 AM 43.5539 -106.0708 330° Northwest 392 451 25,700 -2,389 Descending Denver Center
Wed 01:23:45 AM 43.6361 -106.1389 329° Northwest 368 423 23,400 -2,588 Descending Salt Lake Center
Wed 01:24:46 AM 43.7122 -106.2017 329° Northwest 340 391 21,300 -2,311 Descending Salt Lake Center
Wed 01:25:47 AM 43.8006 -106.2736 330° Northwest 334 384 18,700 -2,083 Descending Salt Lake Center
Wed 01:26:47 AM 43.8786 -106.3358 330° Northwest 337 388 17,100 -1,339 Descending Salt Lake Center
Wed 01:27:48 AM 43.9497 -106.3911 331° Northwest 323 372 16,000 -975 Descending Salt Lake Center
Wed 01:28:07 AM 43.9714 -106.4083 330° Northwest 313 360 15,800 -987 Descending Denver Center
Wed 01:29:07 AM 44.0411 -106.4658 329° Northwest 307 353 14,700 -1,041 Descending Denver Center
Wed 01:30:08 AM 44.1244 -106.5303 331° Northwest 307 353 13,700 -1,212 Descending Denver Center
Wed 01:30:51 AM 44.1703 -106.5694 328° Northwest 304 350 12,600 -1,535 Descending Salt Lake Center
Wed 01:33:00 AM 44.3403 -106.6794 331° Northwest  Level FlightAware Approximate
Wed 01:40:00 AM 44.7667 -106.9667 335° Northwest  Level FlightAware Approximate
Wed 01:41:00 AM 44.7692 -106.9803 335° Northwest  Level Estimated
Wed 01:42:00 AM 44.7692 -106.9803 335° Northwest  Level Estimated

Login

Don't have an account? Register now (free) for customized features, flight alerts, and more!